Munds Park, AZ (86017)

11:49 PM MST on August 27, 2015 (GMT -0700)
Munds Park Crystal Brook | | Change Station
CLOSE
Current Station
Personal Weather Station
Location: Munds Park, AZ
Elevation: 6598 ft
Nearby Weather Stations

Elev 6598 ft 34.94 °N, 111.64 °W | Updated 1 minute ago

Clear
Clear
57.2 °F
Feels Like 57.2 °F
N
0.0
Wind Variable Wind from SW
Gusts 0.0 mph

Today
High -- | Low -- °F
--% Chance of Precip.
Yesterday
High -- | Low -- °F
Precip. -- in
5:55 AM 7:00 PM
Waxing Gibbous, 97% visible
Pressure 30.07 in
Visibility 10.0 miles
Clouds Clear
Dew Point 56 °F
Humidity 96%
Rainfall in
Snow Depth Not available.
UV 0.0 out of 12
Pollen 2.40 out of 12
Air Quality Not available.
Flu Activity Not available.
METAR KFLG 280557Z AUTO 00000KT 10SM CLR 14/13 A3037 RMK AO2 SLP182 T01390133 10178 20133 58000 TSNO
Pressure 30.07 in
Visibility 10.0 miles
Clouds Clear
Dew Point 56 °F
Humidity 96%
Rainfall in
Snow Depth Not available.
UV 0.0 out of 12
Pollen 2.40 out of 12
Air Quality Not available.
Flu Activity Not available.
METAR KFLG 280557Z AUTO 00000KT 10SM CLR 14/13 A3037 RMK AO2 SLP182 T01390133 10178 20133 58000 TSNO

10-Day Weather Forecast

×

Almanac

Astronomy

Aug. 27, 2015 Rise Set
Actual Time
Civil Twilight
Nautical Twilight
Astronomical Twilight
Moon
Length of Visible Light
Length of Day
Tomorrow will be .
, % of the Moon is Illuminated

Today's Extremes

State Highs State Lows

Community

WunderPhotos

Upload Photos

1,850,341 photos uploaded!

WunderBlogs® & News

Nearby

Air Quality

  Air Quality AQ Index Pollutant
Not available.

Snow Depth

Station Depth Elevation

Earthquake Activity

City Distance Mag. Time & Date
Minimum magnitude displayed is 2.5.

Coastal Water Temperatures

Place Temperature

Stations

Nearby Weather Stations

Station Location Temp. Windchill Dew Point Humidity Wind Precip. Elev Updated Type